Terminal Aerodrome Forecast
Issued by NWS

Home | Current Version | Previous Version | Graphics & Text | Print | Product List | Glossary On
Versions: 1 2 3 4 5 6 7 8 9 10 11
000
FTUS45 KGGW 020533
TAFSDY
TAF
KSDY 020533Z 0206/0306 VRB04KT P6SM FEW200
     FM021500 16007KT P6SM FEW200
     FM021800 17011KT P6SM FEW140
     FM030000 20007KT P6SM FEW150
     FM030300 VRB03KT P6SM FEW150
      AMD LTD TO CLD VIS AND WIND=

USA.gov is the U.S. government's official web portal to all federal, state and local government web resources and services.